Time;durP1;ratioP1;P1;durP2;ratioP2;P2;SDS_P1;SDS_P2;PMS_P1;PMS_P2;Temp;Humidity;BMP_temperature;BMP_pressure;BME280_temperature;BME280_humidity;BME280_pressure;Samples;Min_cycle;Max_cycle;Signal;HPM_P1;HPM_P2
2021/07/09 00:01:23;;;;;;;6.97;3.57;;;17.70;99.90;;;;;;5116442;28;20441;-79
2021/07/09 00:03:50;;;;;;;5.30;3.37;;;17.70;99.90;;;;;;5117609;27;20816;-78
2021/07/09 00:06:20;;;;;;;4.27;3.87;;;17.60;99.90;;;;;;5117275;28;20527;-79
2021/07/09 00:08:47;;;;;;;7.37;3.83;;;17.60;99.90;;;;;;5131739;27;20473;-79
2021/07/09 00:11:15;;;;;;;3.83;3.50;;;17.70;99.90;;;;;;5144591;27;20478;-79
2021/07/09 00:13:42;;;;;;;3.73;3.20;;;17.70;99.90;;;;;;5139948;27;20511;-80
2021/07/09 00:16:11;;;;;;;5.00;4.60;;;17.70;99.90;;;;;;5130819;28;20512;-81
2021/07/09 00:18:40;;;;;;;5.77;3.63;;;17.70;99.80;;;;;;5139296;27;20499;-80
2021/07/09 00:21:08;;;;;;;3.60;3.07;;;17.70;99.30;;;;;;5150594;27;20505;-80
2021/07/09 00:23:36;;;;;;;4.07;3.67;;;17.60;99.10;;;;;;5154418;27;20441;-81
2021/07/09 00:26:03;;;;;;;5.10;3.17;;;17.60;99.30;;;;;;5155934;27;20449;-80
2021/07/09 00:28:33;;;;;;;3.50;3.20;;;17.50;99.10;;;;;;5141577;27;20470;-81
2021/07/09 00:31:00;;;;;;;4.13;3.57;;;17.50;99.30;;;;;;5134257;28;20430;-79
2021/07/09 00:33:26;;;;;;;3.93;3.63;;;17.50;99.20;;;;;;5130026;27;20458;-81
2021/07/09 00:35:55;;;;;;;4.93;3.30;;;17.50;99.50;;;;;;5123962;28;20592;-81
2021/07/09 00:38:22;;;;;;;4.10;3.80;;;17.40;99.30;;;;;;5118039;27;20500;-79
2021/07/09 00:40:49;;;;;;;7.83;3.70;;;17.40;99.50;;;;;;5116715;28;20445;-79
2021/07/09 00:43:16;;;;;;;4.33;3.27;;;17.50;99.70;;;;;;5117331;28;20478;-78
2021/07/09 00:45:43;;;;;;;3.73;3.13;;;17.40;99.20;;;;;;5122956;28;20482;-80
2021/07/09 00:48:10;;;;;;;3.77;3.30;;;17.40;99.10;;;;;;5117423;28;20467;-79
2021/07/09 00:50:37;;;;;;;4.33;3.93;;;17.40;99.50;;;;;;5115789;28;20847;-78
2021/07/09 00:53:06;;;;;;;4.67;3.67;;;17.30;99.40;;;;;;5115396;28;20549;-78
2021/07/09 00:55:33;;;;;;;4.30;3.40;;;17.40;99.70;;;;;;5137142;27;20480;-81
2021/07/09 00:58:02;;;;;;;7.43;3.77;;;17.30;99.70;;;;;;5139713;27;20481;-79
2021/07/09 01:00:30;;;;;;;5.10;3.77;;;17.30;99.70;;;;;;5135573;28;20969;-80
2021/07/09 01:02:57;;;;;;;4.27;3.60;;;17.30;99.90;;;;;;5139379;27;20459;-80
2021/07/09 01:05:24;;;;;;;3.83;3.53;;;17.30;99.90;;;;;;5142793;27;20445;-80
2021/07/09 01:07:51;;;;;;;4.23;3.40;;;17.30;99.90;;;;;;5137656;27;20449;-80
2021/07/09 01:10:20;;;;;;;3.33;3.03;;;17.30;99.90;;;;;;5119400;28;20501;-78
2021/07/09 01:12:49;;;;;;;6.23;3.10;;;17.30;99.70;;;;;;5118934;28;20462;-79
2021/07/09 01:15:17;;;;;;;6.63;4.60;;;17.30;99.70;;;;;;5139383;27;20484;-80
2021/07/09 01:17:45;;;;;;;3.80;3.50;;;17.30;99.70;;;;;;5139799;27;20521;-80
2021/07/09 01:20:15;;;;;;;4.50;4.10;;;17.30;99.70;;;;;;5122442;28;20485;-81
2021/07/09 01:22:43;;;;;;;4.17;3.67;;;17.20;99.60;;;;;;5127392;28;20513;-78
2021/07/09 01:25:14;;;;;;;5.90;4.03;;;17.10;99.90;;;;;;5157448;27;20443;-80
2021/07/09 01:27:44;;;;;;;4.70;4.20;;;17.10;99.90;;;;;;5157740;27;20464;-81
2021/07/09 01:30:14;;;;;;;5.53;4.40;;;17.00;99.90;;;;;;5157439;27;20472;-81
2021/07/09 01:32:42;;;;;;;6.00;3.40;;;17.00;99.90;;;;;;5156431;28;20460;-81
2021/07/09 01:35:10;;;;;;;6.03;4.60;;;16.90;99.90;;;;;;5129696;28;20481;-80
2021/07/09 01:37:37;;;;;;;4.37;4.00;;;16.90;99.90;;;;;;5136366;28;20493;-82
2021/07/09 01:40:06;;;;;;;5.40;3.57;;;17.00;99.90;;;;;;5136504;27;20473;-79
2021/07/09 01:42:35;;;;;;;4.00;3.60;;;16.90;99.90;;;;;;5115780;28;20975;-78
2021/07/09 01:45:02;;;;;;;3.93;3.63;;;16.90;99.90;;;;;;5130054;28;20503;-78
2021/07/09 01:47:29;;;;;;;3.70;3.40;;;17.00;99.80;;;;;;5135580;28;20476;-79
2021/07/09 01:49:58;;;;;;;5.90;3.80;;;16.90;99.50;;;;;;5114608;28;20485;-78
2021/07/09 01:52:27;;;;;;;4.90;3.83;;;17.00;99.20;;;;;;5114458;28;20470;-80
2021/07/09 01:54:54;;;;;;;9.67;4.20;;;17.00;99.20;;;;;;5113688;28;20508;-77
2021/07/09 01:57:22;;;;;;;10.98;3.95;;;16.90;98.80;;;;;;5115190;28;20905;-77
2021/07/09 01:59:50;;;;;;;5.27;3.47;;;16.90;98.80;;;;;;5118099;28;20251;-79
2021/07/09 02:02:17;;;;;;;4.60;3.73;;;17.00;98.70;;;;;;5115224;28;20778;-79
2021/07/09 02:04:48;;;;;;;4.00;3.50;;;16.90;98.40;;;;;;5114644;28;20541;-80
2021/07/09 02:07:15;;;;;;;4.23;3.83;;;16.90;98.30;;;;;;5114740;28;20201;-79
2021/07/09 02:09:44;;;;;;;8.00;4.00;;;16.90;98.00;;;;;;5115010;28;20550;-79
2021/07/09 02:12:11;;;;;;;3.53;3.23;;;16.90;97.70;;;;;;5115846;28;20492;-80
2021/07/09 02:14:38;;;;;;;3.80;3.50;;;16.90;97.50;;;;;;5117201;28;20496;-80
2021/07/09 02:17:11;;;;;;;4.07;3.77;;;16.90;97.70;;;;;;5117526;28;20492;-80
2021/07/09 02:19:39;;;;;;;4.13;3.30;;;16.90;97.60;;;;;;5118631;28;20494;-80
2021/07/09 02:22:08;;;;;;;4.20;3.77;;;16.90;97.30;;;;;;5119766;28;20544;-80
2021/07/09 02:24:36;;;;;;;6.95;3.80;;;17.00;96.90;;;;;;5117863;28;20889;-81
2021/07/09 02:27:03;;;;;;;4.87;3.83;;;17.00;96.60;;;;;;5118443;28;20215;-81
2021/07/09 02:29:31;;;;;;;5.70;3.00;;;17.00;96.50;;;;;;5139120;28;20992;-79
2021/07/09 02:31:58;;;;;;;6.67;4.20;;;17.00;96.80;;;;;;5139227;28;20456;-80
2021/07/09 02:34:27;;;;;;;3.73;3.43;;;17.00;97.40;;;;;;5123129;28;20869;-80
2021/07/09 02:36:54;;;;;;;11.43;3.70;;;17.00;97.10;;;;;;5118379;28;20588;-82
2021/07/09 02:39:21;;;;;;;4.00;3.43;;;17.00;97.00;;;;;;5138523;27;20532;-81
2021/07/09 02:41:48;;;;;;;3.73;3.40;;;17.00;96.90;;;;;;5144184;27;20475;-81
2021/07/09 02:44:15;;;;;;;4.83;3.90;;;17.00;97.60;;;;;;5141278;27;20460;-80
2021/07/09 02:46:42;;;;;;;4.27;3.63;;;16.90;97.70;;;;;;5152059;27;20455;-81
2021/07/09 02:49:09;;;;;;;4.30;3.30;;;16.90;97.70;;;;;;5136315;27;20447;-81
2021/07/09 02:51:38;;;;;;;3.40;3.10;;;16.90;98.00;;;;;;5126288;28;20440;-81
2021/07/09 02:54:05;;;;;;;4.33;3.93;;;16.90;98.40;;;;;;5127351;27;20458;-81
2021/07/09 02:56:32;;;;;;;7.50;4.43;;;16.90;98.60;;;;;;5121188;28;20481;-81
2021/07/09 02:58:59;;;;;;;3.93;3.33;;;16.80;98.20;;;;;;5133639;27;20479;-80
2021/07/09 03:01:26;;;;;;;3.93;3.40;;;16.80;98.10;;;;;;5146871;27;20457;-82
2021/07/09 03:03:53;;;;;;;5.30;3.33;;;16.80;98.20;;;;;;5132778;27;20485;-82
2021/07/09 03:06:20;;;;;;;5.70;3.37;;;16.70;97.90;;;;;;5121763;28;20454;-81
2021/07/09 03:08:49;;;;;;;4.30;3.80;;;16.70;97.90;;;;;;5129015;27;20504;-80
2021/07/09 03:11:16;;;;;;;3.90;3.50;;;16.70;97.90;;;;;;5141782;27;20544;-81
2021/07/09 03:13:45;;;;;;;8.63;4.13;;;16.60;97.60;;;;;;5144802;27;20430;-82
2021/07/09 03:16:15;;;;;;;3.97;3.67;;;16.60;97.60;;;;;;5144429;27;20480;-81
2021/07/09 03:18:42;;;;;;;6.37;4.30;;;16.60;97.60;;;;;;5137923;27;20525;-82
2021/07/09 03:21:09;;;;;;;4.37;4.00;;;16.60;98.10;;;;;;5123183;28;20464;-81
2021/07/09 03:23:36;;;;;;;5.90;4.20;;;16.60;98.50;;;;;;5143205;27;20453;-81
2021/07/09 03:26:05;;;;;;;4.23;3.30;;;16.70;98.10;;;;;;5153629;27;20812;-79
2021/07/09 03:28:32;;;;;;;4.93;4.07;;;16.70;97.70;;;;;;5144851;27;20775;-81
2021/07/09 03:30:59;;;;;;;4.33;3.90;;;16.70;97.70;;;;;;5137015;28;20477;-81
2021/07/09 03:33:26;;;;;;;5.17;3.73;;;16.70;97.70;;;;;;5124846;28;20461;-79
2021/07/09 03:35:53;;;;;;;7.43;4.20;;;16.70;97.90;;;;;;5121469;28;20585;-80
2021/07/09 03:38:20;;;;;;;4.90;4.00;;;16.60;98.20;;;;;;5129057;28;20447;-82
2021/07/09 03:40:47;;;;;;;4.47;4.07;;;16.50;98.50;;;;;;5139589;28;20446;-82
2021/07/09 03:43:16;;;;;;;5.67;4.00;;;16.50;98.70;;;;;;5134964;28;20449;-79
2021/07/09 03:45:43;;;;;;;4.30;3.80;;;16.50;99.00;;;;;;5130837;28;20446;-81
2021/07/09 03:48:10;;;;;;;4.57;4.17;;;16.50;99.00;;;;;;5136722;27;20471;-81
2021/07/09 03:50:37;;;;;;;4.20;3.80;;;16.50;98.60;;;;;;5150079;27;20452;-81
2021/07/09 03:53:04;;;;;;;4.63;4.22;;;16.50;98.70;;;;;;5145904;27;20461;-81
2021/07/09 03:55:31;;;;;;;5.35;3.90;;;16.40;99.30;;;;;;5134071;27;20215;-83
2021/07/09 03:57:58;;;;;;;6.00;4.77;;;16.30;99.80;;;;;;5145903;27;20203;-83
2021/07/09 04:00:26;;;;;;;6.87;4.83;;;16.30;99.90;;;;;;5124280;28;20470;-82
2021/07/09 04:02:53;;;;;;;7.05;4.22;;;16.30;99.90;;;;;;5129467;27;20947;-82
2021/07/09 04:05:21;;;;;;;7.18;4.70;;;16.20;99.90;;;;;;5141039;27;20631;-83
2021/07/09 04:10:31;;;;;;;7.18;5.40;;;16.00;99.90;;;;;;5132657;28;20220;-82
2021/07/09 04:13:00;;;;;;;10.20;5.87;;;16.00;99.90;;;;;;5130684;27;20238;-81
2021/07/09 04:15:28;;;;;;;7.43;5.60;;;15.90;99.90;;;;;;5143317;27;20475;-81
2021/07/09 04:17:55;;;;;;;6.75;5.68;;;15.90;99.90;;;;;;5135766;27;20452;-83
2021/07/09 04:20:22;;;;;;;6.03;5.47;;;15.80;99.90;;;;;;5122472;28;20256;-81
2021/07/09 04:22:49;;;;;;;6.10;5.50;;;15.90;99.90;;;;;;5123214;27;20239;-81
2021/07/09 04:25:16;;;;;;;6.50;5.93;;;15.80;99.90;;;;;;5122031;28;20253;-82
2021/07/09 04:27:43;;;;;;;6.45;5.47;;;15.80;99.90;;;;;;5122803;27;20455;-81
2021/07/09 04:30:12;;;;;;;7.53;6.22;;;15.80;99.90;;;;;;5122211;28;20587;-82
2021/07/09 04:32:40;;;;;;;7.07;6.25;;;15.80;99.90;;;;;;5123368;27;20728;-83
2021/07/09 04:35:09;;;;;;;8.88;6.35;;;15.80;99.90;;;;;;5141481;27;20208;-83
2021/07/09 04:37:36;;;;;;;6.65;5.88;;;15.80;99.90;;;;;;5139986;27;20207;-82
2021/07/09 04:40:04;;;;;;;6.70;6.07;;;15.70;99.90;;;;;;5140036;27;20261;-82
2021/07/09 04:42:31;;;;;;;8.15;6.53;;;15.80;99.90;;;;;;5138803;27;20198;-83
2021/07/09 04:44:58;;;;;;;9.95;6.93;;;15.80;99.90;;;;;;5121013;28;20265;-82
2021/07/09 04:47:25;;;;;;;7.30;6.43;;;15.80;99.90;;;;;;5118507;28;20303;-82
2021/07/09 04:49:53;;;;;;;6.82;6.22;;;15.80;99.90;;;;;;5137128;27;20358;-82
2021/07/09 04:52:20;;;;;;;9.32;6.90;;;15.80;99.90;;;;;;5138573;27;20302;-81
2021/07/09 04:54:47;;;;;;;8.50;5.30;;;15.80;99.90;;;;;;5121870;27;20296;-81
2021/07/09 04:57:14;;;;;;;7.15;5.93;;;15.80;99.90;;;;;;5118938;28;20527;-82
2021/07/09 04:59:41;;;;;;;7.53;6.82;;;15.80;99.90;;;;;;5118552;27;20250;-81
2021/07/09 05:02:08;;;;;;;6.73;6.03;;;15.80;99.90;;;;;;5118059;28;20219;-80
2021/07/09 05:04:35;;;;;;;5.80;5.17;;;15.80;99.90;;;;;;5118865;28;20492;-81
2021/07/09 05:07:04;;;;;;;7.15;6.45;;;15.80;99.90;;;;;;5120970;28;20442;-84
2021/07/09 05:09:31;;;;;;;7.60;5.55;;;15.80;99.90;;;;;;5130212;27;20585;-83
2021/07/09 05:11:58;;;;;;;8.30;6.15;;;15.80;99.90;;;;;;5137433;28;20213;-83
2021/07/09 05:14:25;;;;;;;6.22;5.72;;;15.80;99.90;;;;;;5154681;27;20202;-84
2021/07/09 05:16:52;;;;;;;6.33;5.70;;;15.80;99.90;;;;;;5140512;27;20269;-86
2021/07/09 05:19:19;;;;;;;7.87;5.67;;;15.90;99.90;;;;;;5123310;27;20481;-85
2021/07/09 05:21:45;;;;;;;8.98;6.05;;;15.90;99.90;;;;;;5119209;28;20449;-84
2021/07/09 05:24:14;;;;;;;5.77;5.27;;;15.90;99.90;;;;;;5133860;27;20237;-84
2021/07/09 05:26:42;;;;;;;6.33;5.73;;;15.90;99.90;;;;;;5140285;27;20508;-84
2021/07/09 05:29:09;;;;;;;7.60;5.83;;;16.00;99.90;;;;;;5139473;27;20480;-85
2021/07/09 05:31:38;;;;;;;8.07;5.70;;;16.00;99.90;;;;;;5141392;27;20520;-84
2021/07/09 05:34:05;;;;;;;6.70;5.50;;;16.10;99.90;;;;;;5128237;27;20457;-85
2021/07/09 05:36:32;;;;;;;9.20;5.17;;;16.10;99.90;;;;;;5119591;28;20527;-84
2021/07/09 05:38:59;;;;;;;5.40;4.90;;;16.10;99.90;;;;;;5125124;28;20505;-84
2021/07/09 05:41:27;;;;;;;7.82;4.93;;;16.10;99.90;;;;;;5133995;28;20208;-85
2021/07/09 05:43:54;;;;;;;11.90;5.87;;;16.30;99.90;;;;;;5137453;28;20204;-84
2021/07/09 05:46:21;;;;;;;6.20;5.07;;;16.30;99.90;;;;;;5128208;28;20460;-83
2021/07/09 05:48:48;;;;;;;5.70;4.63;;;16.40;99.90;;;;;;5128146;28;20464;-83
2021/07/09 05:51:15;;;;;;;5.37;4.43;;;16.40;99.90;;;;;;5143542;28;20552;-83
2021/07/09 05:53:42;;;;;;;6.40;4.27;;;16.50;99.90;;;;;;5143632;28;20460;-82
2021/07/09 05:56:09;;;;;;;6.50;4.90;;;16.50;99.90;;;;;;5147770;28;20553;-83
2021/07/09 05:58:38;;;;;;;5.30;4.80;;;16.60;99.90;;;;;;5140454;28;20469;-83
2021/07/09 06:01:04;;;;;;;10.07;5.03;;;16.70;99.90;;;;;;5132093;28;20432;-83
2021/07/09 06:03:32;;;;;;;7.90;5.53;;;16.70;99.90;;;;;;5143938;28;20482;-83
2021/07/09 06:05:58;;;;;;;5.17;4.60;;;16.70;99.90;;;;;;5156993;28;20483;-82
2021/07/09 06:08:26;;;;;;;4.77;4.37;;;16.80;99.90;;;;;;5147676;27;20440;-83
2021/07/09 06:10:53;;;;;;;6.73;4.93;;;16.90;99.90;;;;;;5135671;28;20498;-82
2021/07/09 06:13:20;;;;;;;4.60;4.03;;;17.00;99.40;;;;;;5136443;28;20446;-82
2021/07/09 06:15:48;;;;;;;6.90;4.60;;;17.00;98.60;;;;;;5140295;28;20468;-83
2021/07/09 06:18:15;;;;;;;5.40;4.90;;;17.00;97.80;;;;;;5140635;27;20430;-83
2021/07/09 06:20:42;;;;;;;4.67;4.20;;;17.00;97.80;;;;;;5141113;27;20454;-83
2021/07/09 06:23:09;;;;;;;4.63;3.93;;;17.10;97.80;;;;;;5141092;27;20442;-81
2021/07/09 06:25:36;;;;;;;5.30;4.43;;;17.10;97.10;;;;;;5140973;28;20441;-81
2021/07/09 06:28:03;;;;;;;4.73;4.20;;;17.10;97.20;;;;;;5143986;27;20418;-83
2021/07/09 06:30:30;;;;;;;5.23;4.40;;;17.00;97.40;;;;;;5143335;27;20430;-82
2021/07/09 06:32:59;;;;;;;7.43;4.50;;;17.10;97.10;;;;;;5140308;27;20464;-84
2021/07/09 06:35:29;;;;;;;4.83;4.30;;;17.10;96.90;;;;;;5138051;28;20461;-80
2021/07/09 06:37:56;;;;;;;3.97;3.63;;;17.10;96.60;;;;;;5143058;27;20509;-80
2021/07/09 06:40:23;;;;;;;7.60;4.40;;;17.00;97.20;;;;;;5154390;27;20461;-81
2021/07/09 06:42:51;;;;;;;5.30;3.90;;;17.00;97.20;;;;;;5154658;27;20453;-79
2021/07/09 06:45:18;;;;;;;5.23;4.43;;;17.20;97.20;;;;;;5158787;27;20441;-80
2021/07/09 06:47:45;;;;;;;7.60;4.10;;;17.30;96.50;;;;;;5138687;27;20458;-79
2021/07/09 06:50:14;;;;;;;4.33;3.90;;;17.40;95.90;;;;;;5127564;28;20481;-80
2021/07/09 06:52:42;;;;;;;5.60;4.20;;;17.60;95.00;;;;;;5130750;27;20464;-79
2021/07/09 06:55:10;;;;;;;5.93;5.37;;;17.80;94.50;;;;;;5141486;27;20451;-79
2021/07/09 06:57:38;;;;;;;8.20;4.43;;;17.90;93.20;;;;;;5145059;27;20481;-79
2021/07/09 07:00:06;;;;;;;4.60;4.30;;;18.00;92.60;;;;;;5151105;27;20474;-79
2021/07/09 07:02:33;;;;;;;5.93;5.43;;;18.20;90.50;;;;;;5148950;27;20476;-81
2021/07/09 07:05:01;;;;;;;7.90;4.30;;;18.20;89.60;;;;;;5151917;27;20431;-82
2021/07/09 07:07:30;;;;;;;6.47;5.63;;;18.10;90.40;;;;;;5151427;27;20470;-81
2021/07/09 07:09:57;;;;;;;4.43;4.03;;;18.10;90.90;;;;;;5154581;27;20468;-81
2021/07/09 07:12:26;;;;;;;4.37;3.93;;;18.10;90.00;;;;;;5147334;27;20460;-81
2021/07/09 07:14:53;;;;;;;6.47;4.50;;;18.20;89.10;;;;;;5150389;27;20451;-80
2021/07/09 07:17:20;;;;;;;5.77;3.90;;;18.30;88.30;;;;;;5149571;27;20469;-79
2021/07/09 07:19:47;;;;;;;5.20;4.17;;;18.40;87.90;;;;;;5152469;27;20477;-81
2021/07/09 07:22:14;;;;;;;6.60;4.10;;;18.40;87.50;;;;;;5153416;27;20433;-78
2021/07/09 07:24:44;;;;;;;3.97;3.67;;;18.70;86.40;;;;;;5153331;27;20438;-82
2021/07/09 07:27:11;;;;;;;4.10;3.47;;;18.50;84.00;;;;;;5153873;27;20421;-83
2021/07/09 07:29:39;;;;;;;4.90;3.83;;;18.40;85.60;;;;;;5156621;27;20439;-80
2021/07/09 07:32:06;;;;;;;5.80;5.30;;;18.50;85.50;;;;;;5152014;27;20454;-78
2021/07/09 07:34:33;;;;;;;4.40;3.50;;;18.70;85.50;;;;;;5155655;27;20438;-80
2021/07/09 07:37:00;;;;;;;5.30;3.73;;;18.80;84.30;;;;;;5138654;27;20553;-78
2021/07/09 07:39:27;;;;;;;4.90;3.73;;;19.00;82.70;;;;;;5154297;27;20480;-79
2021/07/09 07:41:55;;;;;;;4.93;3.77;;;19.40;80.00;;;;;;5154669;27;20942;-79
2021/07/09 07:44:22;;;;;;;7.87;3.70;;;19.70;76.40;;;;;;5154194;27;20431;-79
2021/07/09 07:46:50;;;;;;;5.13;4.30;;;19.90;76.40;;;;;;5150187;27;20518;-79
2021/07/09 07:49:17;;;;;;;4.53;4.10;;;20.10;72.40;;;;;;5145250;27;20450;-78
2021/07/09 07:51:50;;;;;;;4.23;3.57;;;20.40;72.00;;;;;;5130263;27;20492;-79
2021/07/09 07:54:17;;;;;;;5.73;3.73;;;20.60;69.90;;;;;;5128104;28;20415;-78
2021/07/09 07:56:44;;;;;;;6.17;4.20;;;20.70;67.40;;;;;;5141483;27;20500;-78
2021/07/09 07:59:12;;;;;;;5.70;4.30;;;20.60;67.80;;;;;;5153874;27;20895;-77
2021/07/09 08:01:40;;;;;;;4.00;3.50;;;20.70;66.80;;;;;;5150228;27;20449;-78
2021/07/09 08:04:17;;;;;;;4.97;3.67;;;20.80;68.60;;;;;;5152028;27;20499;-79
2021/07/09 08:06:44;;;;;;;4.47;4.00;;;20.70;66.40;;;;;;5144735;27;20480;-78
2021/07/09 08:09:11;;;;;;;4.17;3.83;;;20.60;66.60;;;;;;5131107;27;20514;-79
2021/07/09 08:11:38;;;;;;;4.30;3.87;;;20.50;68.20;;;;;;5128279;27;20495;-78
2021/07/09 08:14:05;;;;;;;4.13;3.73;;;20.60;68.30;;;;;;5139601;27;20455;-78
2021/07/09 08:16:34;;;;;;;4.13;3.77;;;20.50;67.40;;;;;;5140104;27;20523;-80
2021/07/09 08:19:02;;;;;;;5.27;4.10;;;20.60;68.30;;;;;;5145428;27;20452;-80
2021/07/09 08:21:28;;;;;;;4.00;3.60;;;20.70;66.50;;;;;;5138291;27;20464;-80
2021/07/09 08:23:55;;;;;;;4.07;3.77;;;20.80;66.60;;;;;;5133994;28;20453;-79
2021/07/09 08:26:23;;;;;;;4.10;3.43;;;21.00;65.90;;;;;;5122744;27;20454;-78
2021/07/09 08:28:50;;;;;;;5.40;3.77;;;21.50;63.40;;;;;;5120734;28;20491;-77
2021/07/09 08:31:17;;;;;;;5.13;4.20;;;21.90;60.30;;;;;;5120838;28;20453;-79
2021/07/09 08:33:45;;;;;;;5.40;3.90;;;21.80;60.20;;;;;;5121827;28;20450;-79
2021/07/09 08:36:12;;;;;;;6.10;4.20;;;22.10;57.90;;;;;;5138081;27;20455;-79
2021/07/09 08:38:39;;;;;;;6.37;4.10;;;22.20;57.30;;;;;;5144858;27;20524;-80
2021/07/09 08:41:06;;;;;;;5.20;4.37;;;22.00;57.20;;;;;;5146093;27;20974;-78
2021/07/09 08:43:33;;;;;;;5.93;4.30;;;21.70;58.60;;;;;;5143398;27;20559;-78
2021/07/09 08:46:01;;;;;;;4.40;3.93;;;21.80;59.10;;;;;;5128723;27;20942;-78
2021/07/09 08:48:29;;;;;;;5.37;4.27;;;21.80;57.40;;;;;;5119667;28;20451;-76
2021/07/09 08:51:00;;;;;;;7.77;5.00;;;21.70;58.30;;;;;;5127492;28;20457;-77
2021/07/09 08:53:28;;;;;;;5.67;4.03;;;21.70;58.60;;;;;;5129224;28;20442;-78
2021/07/09 08:55:55;;;;;;;6.10;4.83;;;21.80;58.30;;;;;;5136500;27;20457;-78
2021/07/09 08:58:22;;;;;;;5.90;3.87;;;21.80;57.30;;;;;;5144502;27;20564;-77
2021/07/09 09:00:52;;;;;;;4.23;3.83;;;21.80;58.00;;;;;;5134950;27;20459;-77
2021/07/09 09:03:20;;;;;;;6.13;5.10;;;22.00;58.00;;;;;;5124178;28;20458;-78
2021/07/09 09:05:48;;;;;;;4.60;4.00;;;22.20;56.00;;;;;;5130931;27;20442;-79
2021/07/09 09:08:19;;;;;;;7.33;5.40;;;22.20;57.50;;;;;;5144389;27;20419;-79
2021/07/09 09:10:48;;;;;;;5.60;5.10;;;22.30;55.30;;;;;;5124404;28;20445;-79
2021/07/09 09:13:19;;;;;;;9.40;4.80;;;22.30;54.60;;;;;;5124090;28;20468;-79
2021/07/09 09:15:58;;;;;;;9.37;5.10;;;22.10;55.70;;;;;;5124396;28;20461;-79
2021/07/09 09:18:26;;;;;;;9.20;5.07;;;22.40;56.30;;;;;;5127724;28;20550;-78
2021/07/09 09:20:59;;;;;;;7.17;5.60;;;22.70;55.40;;;;;;5132843;27;20448;-79
2021/07/09 09:23:30;;;;;;;8.33;5.20;;;23.10;54.10;;;;;;5148965;27;20489;-78
2021/07/09 09:25:58;;;;;;;5.37;4.87;;;23.40;52.00;;;;;;5129017;27;20458;-79
2021/07/09 09:28:25;;;;;;;6.13;5.03;;;23.60;52.20;;;;;;5129558;28;20445;-78
2021/07/09 09:30:58;;;;;;;5.83;5.10;;;23.30;51.90;;;;;;5145702;28;20445;-78
2021/07/09 09:33:33;;;;;;;9.53;5.60;;;23.20;52.90;;;;;;5144462;27;20464;-79
2021/07/09 09:36:04;;;;;;;6.17;4.50;;;23.40;53.90;;;;;;5136238;28;20816;-79
2021/07/09 09:38:32;;;;;;;6.90;4.57;;;23.80;52.40;;;;;;5145807;28;20452;-79
2021/07/09 09:41:01;;;;;;;5.17;4.67;;;23.80;52.30;;;;;;5145952;28;20944;-78
2021/07/09 09:43:30;;;;;;;11.53;4.40;;;24.00;51.80;;;;;;5141957;28;20504;-78
2021/07/09 09:46:02;;;;;;;5.70;4.23;;;24.40;51.60;;;;;;5121067;28;20510;-79
2021/07/09 09:48:44;;;;;;;5.20;4.70;;;24.70;49.70;;;;;;5149671;27;20460;-79
2021/07/09 09:51:29;;;;;;;7.40;4.80;;;24.80;49.80;;;;;;5152772;27;20425;-79
2021/07/09 09:54:00;;;;;;;5.70;4.70;;;24.50;49.90;;;;;;5149083;27;20876;-78
2021/07/09 09:56:34;;;;;;;5.47;4.70;;;23.90;50.00;;;;;;5148698;27;21017;-79
2021/07/09 09:59:15;;;;;;;7.37;5.23;;;23.90;52.50;;;;;;5148228;27;20514;-78
2021/07/09 10:01:47;;;;;;;8.13;6.10;;;24.20;48.60;;;;;;5132128;27;20431;-79
2021/07/09 10:04:14;;;;;;;7.23;6.53;;;24.20;49.10;;;;;;5122305;28;20868;-78
2021/07/09 10:06:44;;;;;;;8.37;5.97;;;24.30;48.10;;;;;;5118860;28;20491;-78
2021/07/09 10:09:13;;;;;;;6.97;5.93;;;24.30;48.20;;;;;;5119428;28;20883;-79
2021/07/09 10:11:40;;;;;;;6.30;5.70;;;24.40;48.00;;;;;;5122847;28;20481;-78
2021/07/09 10:14:11;;;;;;;7.20;6.53;;;24.30;48.00;;;;;;5124368;28;20484;-79
2021/07/09 10:16:40;;;;;;;6.83;6.23;;;24.20;48.00;;;;;;5124613;28;20914;-79
2021/07/09 10:19:09;;;;;;;9.70;6.13;;;24.00;49.20;;;;;;5122707;28;20500;-79
2021/07/09 10:21:37;;;;;;;7.53;6.30;;;23.80;47.20;;;;;;5143764;27;20505;-80
2021/07/09 10:24:06;;;;;;;6.63;5.93;;;23.90;49.10;;;;;;5155252;27;20451;-79
2021/07/09 10:26:39;;;;;;;5.33;4.83;;;24.30;47.80;;;;;;5155234;27;20456;-80
2021/07/09 10:29:10;;;;;;;7.97;4.97;;;24.60;47.80;;;;;;5153089;27;20987;-80
2021/07/09 10:31:38;;;;;;;5.07;4.30;;;24.90;46.40;;;;;;5136292;27;20500;-79
2021/07/09 10:34:30;;;;;;;9.93;4.33;;;24.80;46.70;;;;;;5131491;27;20509;-79
2021/07/09 10:37:00;;;;;;;7.10;4.07;;;24.60;46.70;;;;;;5132792;27;20438;-80
2021/07/09 10:39:39;;;;;;;5.30;4.47;;;24.60;46.40;;;;;;5138403;27;20495;-80
2021/07/09 10:42:27;;;;;;;5.87;5.27;;;24.80;45.80;;;;;;5145307;27;20460;-79
2021/07/09 10:45:08;;;;;;;5.80;5.20;;;24.80;45.30;;;;;;5144107;27;20483;-78
2021/07/09 10:47:50;;;;;;;7.60;5.17;;;24.90;45.00;;;;;;5129142;28;20445;-79
2021/07/09 10:50:19;;;;;;;8.40;4.70;;;24.80;44.40;;;;;;5130791;27;20966;-79
2021/07/09 10:52:59;;;;;;;6.27;4.50;;;24.80;44.90;;;;;;5134644;27;20450;-78
2021/07/09 10:55:41;;;;;;;5.40;4.90;;;24.50;45.30;;;;;;5137514;27;20451;-78
2021/07/09 10:58:20;;;;;;;5.90;5.30;;;24.00;47.60;;;;;;5125744;27;20522;-79
2021/07/09 11:00:50;;;;;;;7.30;6.60;;;23.70;48.20;;;;;;5119925;28;20520;-80
2021/07/09 11:03:32;;;;;;;7.93;7.10;;;23.50;50.00;;;;;;5133783;27;20440;-79
2021/07/09 11:06:05;;;;;;;7.70;7.00;;;23.00;55.20;;;;;;5138724;27;20473;-80
2021/07/09 11:08:53;;;;;;;8.23;7.00;;;22.90;55.50;;;;;;5130261;27;20492;-81
2021/07/09 11:11:35;;;;;;;11.83;7.83;;;22.50;65.00;;;;;;5126220;28;20434;-80
2021/07/09 11:14:05;;;;;;;9.30;8.40;;;22.30;69.90;;;;;;5146837;27;20472;-80
2021/07/09 11:16:35;;;;;;;8.13;7.30;;;22.40;70.40;;;;;;5143031;27;20450;-79
2021/07/09 11:19:14;;;;;;;8.80;8.00;;;22.40;68.20;;;;;;5141162;27;20983;-80
2021/07/09 11:22:00;;;;;;;6.67;6.03;;;22.80;70.30;;;;;;5140665;27;20469;-79
2021/07/09 11:24:30;;;;;;;7.17;6.57;;;23.10;62.70;;;;;;5136693;27;20437;-78
2021/07/09 11:26:59;;;;;;;7.90;7.00;;;23.20;62.00;;;;;;5122645;28;20420;-79
2021/07/09 11:29:30;;;;;;;7.40;6.60;;;23.30;58.60;;;;;;5117526;28;20566;-81
2021/07/09 11:31:59;;;;;;;6.80;6.23;;;23.30;58.40;;;;;;5120668;27;20450;-80
2021/07/09 11:34:28;;;;;;;7.50;6.00;;;23.60;56.90;;;;;;5120424;28;20431;-80
2021/07/09 11:36:57;;;;;;;6.90;6.10;;;24.00;58.10;;;;;;5118977;28;20938;-78
2021/07/09 11:39:27;;;;;;;7.10;6.50;;;24.20;56.40;;;;;;5118003;28;20486;-79
2021/07/09 11:42:06;;;;;;;6.23;5.60;;;24.70;49.90;;;;;;5118540;28;20484;-78
2021/07/09 11:44:37;;;;;;;6.80;6.13;;;24.90;49.90;;;;;;5119222;28;20476;-78
2021/07/09 11:47:06;;;;;;;7.73;7.13;;;24.90;48.90;;;;;;5133692;27;20499;-80
2021/07/09 11:49:34;;;;;;;7.50;6.80;;;24.60;49.70;;;;;;5132189;28;20460;-79
2021/07/09 11:52:04;;;;;;;8.87;6.90;;;24.20;51.80;;;;;;5137635;27;20487;-78
2021/07/09 11:54:33;;;;;;;7.50;6.80;;;23.50;53.30;;;;;;5137585;27;20436;-77
2021/07/09 11:57:08;;;;;;;9.17;6.80;;;23.60;52.20;;;;;;5120965;27;20476;-78
2021/07/09 11:59:37;;;;;;;8.13;5.93;;;23.70;53.90;;;;;;5117862;28;20496;-78
2021/07/09 12:02:07;;;;;;;7.47;6.87;;;23.80;49.20;;;;;;5117920;27;20723;-77
2021/07/09 12:04:36;;;;;;;6.63;5.90;;;23.80;53.90;;;;;;5137927;27;20847;-78
2021/07/09 12:07:24;;;;;;;7.40;6.00;;;23.80;48.30;;;;;;5122221;27;20537;-78
2021/07/09 12:09:55;;;;;;;7.00;6.10;;;23.50;50.60;;;;;;5115753;28;20506;-77
2021/07/09 12:12:23;;;;;;;7.37;5.93;;;23.40;50.00;;;;;;5129956;27;20932;-78
2021/07/09 12:15:09;;;;;;;4.70;4.40;;;23.30;50.60;;;;;;5142609;27;20988;-79
2021/07/09 12:17:39;;;;;;;4.90;4.47;;;23.30;50.60;;;;;;5148973;27;20480;-79
2021/07/09 12:20:09;;;;;;;8.10;4.87;;;23.40;48.90;;;;;;5143536;27;20470;-79
2021/07/09 12:22:42;;;;;;;7.87;5.33;;;23.70;50.60;;;;;;5132136;27;20467;-79
2021/07/09 12:25:12;;;;;;;4.93;4.53;;;23.90;48.80;;;;;;5122564;28;20462;-80
2021/07/09 12:27:40;;;;;;;6.73;4.90;;;24.20;47.10;;;;;;5124391;27;20450;-79
2021/07/09 12:30:12;;;;;;;4.57;4.17;;;24.50;43.00;;;;;;5145642;27;20477;-78
2021/07/09 12:32:54;;;;;;;4.30;3.90;;;24.70;43.20;;;;;;5120488;28;20482;-81
2021/07/09 12:35:22;;;;;;;4.40;4.00;;;25.00;42.60;;;;;;5117400;28;20439;-78
2021/07/09 12:38:01;;;;;;;5.33;4.23;;;25.30;41.50;;;;;;5123948;28;20485;-77
2021/07/09 12:40:36;;;;;;;5.47;4.97;;;25.40;40.50;;;;;;5126663;27;20504;-80
2021/07/09 12:43:15;;;;;;;6.17;4.60;;;25.50;40.70;;;;;;5131773;27;20462;-81
2021/07/09 12:45:44;;;;;;;4.93;4.53;;;25.70;40.90;;;;;;5122062;27;20428;-79
2021/07/09 12:48:11;;;;;;;5.13;4.73;;;25.80;39.70;;;;;;5138078;27;20455;-78
2021/07/09 12:50:40;;;;;;;4.90;4.50;;;25.90;40.70;;;;;;5134479;27;20429;-77
2021/07/09 12:53:17;;;;;;;5.80;5.30;;;25.80;40.50;;;;;;5117595;27;20515;-79
2021/07/09 12:55:44;;;;;;;5.10;4.27;;;25.50;38.70;;;;;;5139517;27;20449;-79
2021/07/09 12:58:17;;;;;;;5.50;4.40;;;25.50;39.10;;;;;;5136287;27;21050;-79